Time;durP1;ratioP1;P1;durP2;ratioP2;P2;SDS_P1;SDS_P2;PMS_P1;PMS_P2;Temp;Humidity;BMP_temperature;BMP_pressure;BME280_temperature;BME280_humidity;BME280_pressure;Samples;Min_cycle;Max_cycle;Signal;HPM_P1;HPM_P2
2022/12/21 00:03:03;;;;;;;64.38;31.27;;;;;;;1.15;89.25;99826.47;10375630;28;20042;-68
2022/12/21 00:08:04;;;;;;;66.30;31.15;;;;;;;1.06;89.59;99829.03;10374364;28;20376;-68
2022/12/21 00:13:06;;;;;;;63.15;31.35;;;;;;;0.89;90.39;99822.09;10379674;28;20042;-68
2022/12/21 00:18:08;;;;;;;60.63;30.55;;;;;;;0.92;90.67;99816.91;10383010;28;20048;-68
2022/12/21 00:23:10;;;;;;;60.30;30.77;;;;;;;0.94;91.02;99824.69;10381850;28;20052;-68
2022/12/21 00:28:11;;;;;;;63.88;31.90;;;;;;;1.01;91.35;99816.91;10381652;28;20045;-68
2022/12/21 00:33:13;;;;;;;62.85;30.33;;;;;;;0.91;92.41;99810.00;10381792;28;20054;-68
2022/12/21 00:38:15;;;;;;;63.13;30.38;;;;;;;0.88;93.53;99807.38;10363887;28;20054;-68
2022/12/21 00:43:17;;;;;;;65.65;31.30;;;;;;;0.78;95.32;99804.78;10382016;28;20376;-69
2022/12/21 00:48:19;;;;;;;67.93;32.13;;;;;;;0.87;94.30;99800.50;10380760;28;20038;-68
2022/12/21 00:53:21;;;;;;;65.63;31.10;;;;;;;0.74;95.33;99806.47;10380095;28;20478;-68
2022/12/21 00:58:25;;;;;;;68.05;31.38;;;;;;;0.90;94.01;99815.19;10363355;28;20128;-68
2022/12/21 01:03:27;;;;;;;49.72;28.30;;;;;;;0.98;93.53;99821.25;10363456;28;20050;-68
2022/12/21 01:08:30;;;;;;;63.80;31.02;;;;;;;0.78;96.11;99823.75;10379782;28;20041;-68
2022/12/21 01:13:32;;;;;;;67.78;30.38;;;;;;;0.73;97.97;99807.34;10361925;28;20061;-68
2022/12/21 01:18:34;;;;;;;62.88;29.90;;;;;;;0.76;99.32;99804.78;10361794;28;20052;-69
2022/12/21 01:23:37;;;;;;;61.10;32.13;;;;;;;0.93;98.91;99812.59;10380180;28;20491;-68
2022/12/21 01:28:39;;;;;;;69.38;32.42;;;;;;;0.80;100.00;99809.09;10361403;28;20046;-69
2022/12/21 01:33:40;;;;;;;70.93;32.10;;;;;;;0.67;100.00;99804.75;10378742;28;20045;-68
2022/12/21 01:38:45;;;;;;;60.28;30.60;;;;;;;0.68;100.00;99801.28;10360914;28;20569;-69
2022/12/21 01:43:55;;;;;;;61.50;29.95;;;;;;;0.75;100.00;99797.84;10360896;28;20057;-69
2022/12/21 01:49:04;;;;;;;63.78;30.30;;;;;;;0.77;100.00;99790.97;10360781;28;20165;-68
2022/12/21 01:54:14;;;;;;;60.72;30.48;;;;;;;0.73;100.00;99787.50;10377983;28;20554;-68
2022/12/21 01:59:26;;;;;;;63.10;30.48;;;;;;;0.47;100.00;99779.63;10360706;28;20542;-68
2022/12/21 02:04:28;;;;;;;64.85;32.03;;;;;;;0.49;100.00;99780.50;10377880;28;20120;-69
2022/12/21 02:09:32;;;;;;;63.90;32.67;;;;;;;0.56;100.00;99770.19;10378501;28;20406;-68
2022/12/21 02:14:39;;;;;;;58.63;30.10;;;;;;;0.80;100.00;99774.56;10359180;28;20053;-69
2022/12/21 02:20:18;;;;;;;65.90;32.20;;;;;;;0.65;100.00;99757.28;10376789;28;20048;-68
2022/12/21 02:25:42;;;;;;;62.70;30.27;;;;;;;0.72;100.00;99765.09;10376178;28;20048;-69
2022/12/21 02:31:02;;;;;;;64.93;31.52;;;;;;;0.68;100.00;99757.31;10350425;28;20396;-69
2022/12/21 02:36:07;;;;;;;60.90;30.65;;;;;;;0.69;100.00;99751.28;10409663;22;20049;-70
2022/12/21 02:41:22;;;;;;;57.47;30.05;;;;;;;0.81;100.00;99745.28;10400710;28;20410;-70
2022/12/21 02:46:30;;;;;;;57.95;29.08;;;;;;;0.64;100.00;99751.25;10400717;28;20041;-71
2022/12/21 02:51:35;;;;;;;59.10;31.17;;;;;;;0.69;100.00;99744.38;10399944;28;20064;-72
2022/12/21 02:56:37;;;;;;;54.58;29.88;;;;;;;0.67;100.00;99738.34;10401632;28;20048;-71
2022/12/21 03:01:53;;;;;;;51.65;29.98;;;;;;;0.96;100.00;99732.38;10400163;28;20046;-70
2022/12/21 03:07:14;;;;;;;46.53;27.73;;;;;;;0.84;100.00;99730.63;10400956;28;20042;-72
2022/12/21 03:12:39;;;;;;;49.42;26.80;;;;;;;0.81;100.00;99715.09;10382623;28;20041;-71
2022/12/21 03:17:52;;;;;;;48.85;27.60;;;;;;;0.93;100.00;99719.41;10417106;28;20038;-70
2022/12/21 03:23:00;;;;;;;34.70;25.02;;;;;;;1.00;100.00;99711.69;10397933;28;20049;-70
2022/12/21 03:28:07;;;;;;;42.22;26.65;;;;;;;0.64;100.00;99696.94;10398414;28;20057;-70
2022/12/21 03:33:14;;;;;;;39.13;27.30;;;;;;;0.80;100.00;99703.03;10398117;28;20455;-70
2022/12/21 03:38:25;;;;;;;43.97;26.50;;;;;;;0.96;100.00;99702.19;10416071;28;20037;-70
2022/12/21 03:43:34;;;;;;;38.15;25.17;;;;;;;0.97;100.00;99706.50;10398289;28;20107;-70
2022/12/21 03:48:52;;;;;;;44.65;27.77;;;;;;;0.76;100.00;99696.13;10422167;28;20057;-70
2022/12/21 03:54:05;;;;;;;39.88;25.55;;;;;;;0.87;100.00;99699.56;10406582;28;20041;-70
2022/12/21 03:59:09;;;;;;;40.90;27.40;;;;;;;0.91;100.00;99693.53;10424053;28;20046;-70
2022/12/21 04:04:27;;;;;;;39.92;25.17;;;;;;;0.97;100.00;99688.41;10424671;28;20041;-70
2022/12/21 04:09:29;;;;;;;47.47;27.95;;;;;;;0.72;100.00;99681.44;10424074;28;20091;-70
2022/12/21 04:14:31;;;;;;;51.35;28.67;;;;;;;0.88;100.00;99685.78;10424746;28;20045;-70
2022/12/21 04:30:13;;;;;;;43.63;27.00;;;;;;;0.85;100.00;99674.56;10422999;28;20112;-70
2022/12/21 04:35:15;;;;;;;46.50;27.48;;;;;;;0.94;100.00;99667.69;10423025;28;20075;-71
2022/12/21 04:40:16;;;;;;;45.50;27.40;;;;;;;1.03;100.00;99669.41;10423155;28;20429;-69
2022/12/21 04:45:18;;;;;;;46.60;27.38;;;;;;;0.97;100.00;99654.75;10423261;28;20506;-71
2022/12/21 04:50:20;;;;;;;44.15;26.90;;;;;;;1.00;100.00;99649.56;10422143;28;20038;-70
2022/12/21 04:55:21;;;;;;;48.53;27.45;;;;;;;1.11;100.00;99646.13;10404096;28;20077;-71
2022/12/21 05:00:23;;;;;;;42.08;25.10;;;;;;;1.21;99.24;99646.13;10421088;28;20518;-70
2022/12/21 05:05:25;;;;;;;40.08;25.65;;;;;;;1.05;100.00;99661.66;10404141;28;20064;-70
2022/12/21 05:10:27;;;;;;;43.33;26.27;;;;;;;1.00;100.00;99652.16;10404062;28;20053;-71
2022/12/21 05:15:30;;;;;;;42.30;24.77;;;;;;;1.15;100.00;99637.47;10404135;28;20041;-72
2022/12/21 05:20:32;;;;;;;36.05;24.35;;;;;;;1.08;100.00;99639.22;10421149;28;20041;-70
2022/12/21 05:25:33;;;;;;;42.70;26.00;;;;;;;1.26;99.65;99639.22;10420959;28;20050;-70
2022/12/21 05:30:35;;;;;;;46.65;26.25;;;;;;;1.48;97.41;99634.00;10402992;28;20051;-70
2022/12/21 05:35:40;;;;;;;40.80;25.00;;;;;;;1.28;99.66;99631.44;10420043;28;20402;-70
2022/12/21 05:40:49;;;;;;;38.92;24.85;;;;;;;1.25;100.00;99632.31;10419739;28;20038;-70
2022/12/21 05:45:51;;;;;;;39.67;25.48;;;;;;;1.17;100.00;99633.19;10419644;28;20069;-70
2022/12/21 05:50:53;;;;;;;41.17;23.60;;;;;;;1.23;99.62;99635.75;10419705;28;20491;-70
2022/12/21 05:55:54;;;;;;;37.35;25.08;;;;;;;1.19;100.00;99631.44;10419091;28;20048;-70
2022/12/21 06:01:00;;;;;;;37.10;24.80;;;;;;;1.38;98.92;99625.41;10419289;28;20045;-69
2022/12/21 06:06:07;;;;;;;37.13;23.90;;;;;;;1.57;97.37;99633.13;10420400;28;20065;-71
2022/12/21 06:11:15;;;;;;;37.13;24.83;;;;;;;1.48;98.26;99621.06;10421821;28;20052;-71
2022/12/21 06:16:18;;;;;;;;;;;;;;;1.46;97.70;99618.50;10403424;28;20088;-69
2022/12/21 06:21:21;;;;;;;44.15;25.48;;;;;;;1.57;97.03;99612.41;10403303;28;20267;-71
2022/12/21 06:26:23;;;;;;;45.25;26.20;;;;;;;1.50;98.30;99615.00;10421073;28;20414;-70
2022/12/21 06:31:25;;;;;;;42.05;26.75;;;;;;;1.49;98.35;99612.41;10420536;28;20057;-70
2022/12/21 06:36:27;;;;;;;40.30;26.02;;;;;;;1.30;99.76;99613.31;10403891;28;20045;-71
2022/12/21 06:41:29;;;;;;;55.85;28.85;;;;;;;1.50;99.53;99621.91;10421227;28;20049;-69
2022/12/21 06:46:31;;;;;;;52.35;27.75;;;;;;;1.58;98.57;99621.91;10420581;28;20063;-71
2022/12/21 06:51:33;;;;;;;54.72;28.02;;;;;;;1.68;98.07;99623.59;10403832;28;20056;-71
2022/12/21 06:56:35;;;;;;;45.65;26.80;;;;;;;1.58;98.06;99625.34;10420343;28;20406;-70
2022/12/21 07:01:37;;;;;;;52.22;28.08;;;;;;;1.67;98.19;99619.28;10404494;28;20057;-70
2022/12/21 07:06:41;;;;;;;50.83;28.30;;;;;;;1.75;97.04;99623.59;10420825;28;20120;-70
2022/12/21 07:11:43;;;;;;;49.50;27.65;;;;;;;1.69;98.24;99630.53;10402618;28;20141;-70
2022/12/21 07:16:45;;;;;;;46.88;26.88;;;;;;;1.81;96.24;99630.47;10421049;28;20060;-71
2022/12/21 07:21:47;;;;;;;47.90;27.90;;;;;;;1.63;97.59;99641.75;10426449;28;20053;-70
2022/12/21 07:26:49;;;;;;;54.15;29.98;;;;;;;1.62;98.49;99640.03;10432933;28;20068;-69
2022/12/21 07:31:52;;;;;;;52.47;26.90;;;;;;;1.61;97.91;99642.63;10414855;28;20079;-70
2022/12/21 07:36:54;;;;;;;48.55;27.38;;;;;;;1.68;97.68;99644.31;10416777;28;20103;-70
2022/12/21 07:41:56;;;;;;;57.35;27.63;;;;;;;1.75;97.53;99649.50;10433832;28;20112;-69
2022/12/21 07:46:58;;;;;;;56.38;29.50;;;;;;;1.48;97.91;99646.97;10431952;28;20153;-70
2022/12/21 07:52:01;;;;;;;55.75;28.40;;;;;;;1.60;97.82;99652.13;10412809;28;20049;-69
2022/12/21 07:57:03;;;;;;;51.22;28.17;;;;;;;1.59;99.13;99654.72;10430398;28;20041;-70
2022/12/21 08:02:05;;;;;;;52.78;27.83;;;;;;;1.74;97.14;99649.50;10431224;28;20075;-69
2022/12/21 08:07:07;;;;;;;53.53;27.77;;;;;;;1.75;97.54;99649.50;10429869;28;20053;-69
2022/12/21 08:12:09;;;;;;;59.20;28.40;;;;;;;1.66;99.53;99640.88;10429944;28;20095;-69
2022/12/21 08:17:18;;;;;;;54.75;28.98;;;;;;;1.83;98.17;99648.63;10430331;28;20522;-69
2022/12/21 08:22:24;;;;;;;46.13;27.83;;;;;;;1.77;98.66;99658.16;10432409;28;20105;-71
2022/12/21 08:27:26;;;;;;;47.05;27.00;;;;;;;1.84;97.59;99653.78;10431577;28;20042;-70
2022/12/21 08:32:29;;;;;;;44.05;25.92;;;;;;;1.87;96.87;99661.56;10428687;28;20091;-70
2022/12/21 08:37:31;;;;;;;49.13;27.90;;;;;;;1.89;96.58;99661.56;10422367;28;20037;-73
2022/12/21 08:42:33;;;;;;;48.63;26.35;;;;;;;1.94;96.86;99659.81;10423150;28;20041;-72
2022/12/21 08:47:36;;;;;;;48.42;27.75;;;;;;;1.85;98.21;99662.44;10423053;28;20136;-72
2022/12/21 08:52:37;;;;;;;46.72;26.55;;;;;;;1.68;99.61;99665.06;10423309;28;20411;-72
2022/12/21 08:57:39;;;;;;;46.95;27.45;;;;;;;1.97;98.48;99667.59;10423407;28;20045;-74
2022/12/21 09:02:41;;;;;;;49.83;26.33;;;;;;;1.83;99.46;99659.84;10423793;28;20033;-73
2022/12/21 09:07:43;;;;;;;49.88;26.88;;;;;;;1.98;99.20;99667.56;10406255;28;20041;-73
2022/12/21 09:12:45;;;;;;;41.00;25.90;;;;;;;2.05;98.25;99663.25;10424946;28;20041;-71
2022/12/21 09:17:47;;;;;;;41.25;25.08;;;;;;;1.86;100.00;99665.03;10423993;28;20057;-72
2022/12/21 09:22:50;;;;;;;38.28;24.50;;;;;;;1.89;99.66;99659.81;10425565;28;20076;-73
2022/12/21 09:27:52;;;;;;;40.58;23.98;;;;;;;2.03;99.63;99655.44;10423564;28;20034;-73
2022/12/21 09:32:54;;;;;;;43.58;24.83;;;;;;;1.61;100.00;99656.44;10423007;28;20044;-72
2022/12/21 09:37:57;;;;;;;37.85;24.13;;;;;;;1.89;100.00;99664.16;10421840;28;20052;-73
2022/12/21 09:43:05;;;;;;;32.72;23.52;;;;;;;1.87;100.00;99661.56;10404530;28;20061;-73
2022/12/21 09:48:14;;;;;;;47.08;25.98;;;;;;;1.92;100.00;99657.25;10422248;28;20057;-74
2022/12/21 09:54:07;;;;;;;36.65;24.00;;;;;;;2.08;100.00;99652.88;10404113;28;20049;-73
2022/12/21 09:59:20;;;;;;;30.30;22.35;;;;;;;2.23;99.33;99644.16;10335709;28;20106;-72
2022/12/21 10:04:38;;;;;;;31.38;22.73;;;;;;;2.01;100.00;99638.19;10335718;28;20063;-72
2022/12/21 10:10:27;;;;;;;32.53;23.60;;;;;;;2.13;100.00;99634.72;10336247;28;20057;-73
2022/12/21 10:15:42;;;;;;;32.10;23.30;;;;;;;2.18;100.00;99630.38;10336435;28;20094;-73
2022/12/21 10:20:57;;;;;;;33.17;23.05;;;;;;;2.08;100.00;99629.53;10319266;28;20074;-72
2022/12/21 10:26:02;;;;;;;33.38;23.27;;;;;;;2.39;99.88;99637.16;10334868;28;20141;-72
2022/12/21 10:31:07;;;;;;;35.00;23.40;;;;;;;2.28;100.00;99632.91;10336687;28;20046;-71
2022/12/21 10:36:15;;;;;;;32.17;22.75;;;;;;;2.41;99.76;99628.50;10419357;28;20041;-72
2022/12/21 10:41:25;;;;;;;27.15;22.10;;;;;;;2.27;100.00;99627.72;10418796;28;20503;-72
2022/12/21 10:46:32;;;;;;;31.80;22.75;;;;;;;2.31;100.00;99618.22;10418965;28;20037;-72
2022/12/21 10:51:35;;;;;;;29.23;22.25;;;;;;;2.35;99.14;99622.50;10419503;28;20129;-73
2022/12/21 10:56:45;;;;;;;27.58;20.55;;;;;;;2.16;100.00;99613.94;10420141;28;20045;-72
2022/12/21 11:01:48;;;;;;;26.02;21.27;;;;;;;2.19;100.00;99598.38;10419187;28;20048;-73
2022/12/21 11:06:58;;;;;;;25.20;21.20;;;;;;;2.15;100.00;99604.44;10419907;28;20052;-72
2022/12/21 11:12:22;;;;;;;24.38;20.13;;;;;;;2.23;100.00;99595.75;10426093;28;20565;-73
2022/12/21 11:17:27;;;;;;;25.55;20.30;;;;;;;2.23;100.00;99582.78;10417610;28;20048;-72
2022/12/21 11:22:30;;;;;;;26.58;20.38;;;;;;;2.33;100.00;99587.91;10452525;28;20483;-73
2022/12/21 11:28:01;;;;;;;24.58;20.20;;;;;;;2.71;98.16;99580.75;10435297;28;20038;-72
2022/12/21 11:33:04;;;;;;;24.70;20.23;;;;;;;2.49;99.65;99566.22;10419363;28;20140;-73
2022/12/21 11:38:13;;;;;;;28.10;19.42;;;;;;;2.72;97.80;99579.03;10402040;28;20082;-72
2022/12/21 11:43:16;;;;;;;23.73;20.75;;;;;;;2.55;99.44;99578.28;10420722;28;20052;-72
2022/12/21 11:48:40;;;;;;;22.80;20.35;;;;;;;2.41;100.00;99576.63;10454282;28;20033;-72
2022/12/21 11:54:09;;;;;;;30.67;20.98;;;;;;;2.39;100.00;99557.63;10443090;28;20041;-73
2022/12/21 11:59:31;;;;;;;28.27;21.23;;;;;;;2.48;100.00;99557.56;10458445;28;20037;-73
2022/12/21 12:04:33;;;;;;;23.40;20.77;;;;;;;2.69;99.21;99547.91;10441158;28;20043;-73
2022/12/21 12:10:10;;;;;;;25.48;19.55;;;;;;;2.70;98.01;99560.00;10464817;28;20091;-72
2022/12/21 12:15:35;;;;;;;24.42;21.38;;;;;;;2.70;98.53;99553.09;10448631;28;20098;-72
2022/12/21 12:20:59;;;;;;;26.02;21.08;;;;;;;2.77;97.81;99556.50;10428170;28;20045;-73
2022/12/21 12:26:26;;;;;;;29.40;21.88;;;;;;;2.74;98.17;99552.16;10424702;28;20041;-73
2022/12/21 12:32:04;;;;;;;30.23;22.67;;;;;;;2.71;98.29;99546.16;10304944;28;20050;-73
2022/12/21 12:37:08;;;;;;;35.00;22.20;;;;;;;2.47;99.82;99550.63;10315180;28;20397;-73
2022/12/21 12:42:29;;;;;;;33.83;22.50;;;;;;;2.62;99.24;99546.25;10339052;28;20516;-73
2022/12/21 12:47:44;;;;;;;;;;;;;;;2.74;98.58;99539.19;10307661;28;20512;-71
2022/12/21 12:53:00;;;;;;;30.55;20.95;;;;;;;2.57;99.37;99541.09;10282821;28;20380;-74
2022/12/21 12:58:08;;;;;;;34.53;23.00;;;;;;;2.65;99.00;99539.25;10282403;28;20050;-74
2022/12/21 13:03:39;;;;;;;34.00;21.98;;;;;;;2.76;97.73;99539.19;10318328;28;20133;-72
2022/12/21 13:09:15;;;;;;;29.67;20.98;;;;;;;2.68;98.83;99534.06;10412405;28;20465;-73
2022/12/21 13:14:26;;;;;;;34.10;22.53;;;;;;;2.74;98.33;99543.53;10465713;28;20037;-74
2022/12/21 13:19:36;;;;;;;35.83;22.98;;;;;;;2.51;99.73;99548.88;10447639;28;20041;-73
2022/12/21 13:24:53;;;;;;;28.08;21.80;;;;;;;2.63;100.00;99547.94;10448552;28;20539;-73
2022/12/21 13:30:24;;;;;;;36.17;23.67;;;;;;;2.85;98.45;99546.91;10463562;28;20048;-73
2022/12/21 13:35:34;;;;;;;36.50;23.52;;;;;;;2.48;100.00;99530.78;10295700;28;20101;-73
2022/12/21 13:40:44;;;;;;;37.65;23.33;;;;;;;2.89;98.59;99540.81;10280610;28;20545;-74
2022/12/21 13:45:52;;;;;;;29.13;22.10;;;;;;;2.89;97.61;99547.75;10298043;28;20047;-73
2022/12/21 13:51:03;;;;;;;41.53;23.25;;;;;;;2.84;98.12;99554.72;10294782;28;20106;-72
2022/12/21 13:56:21;;;;;;;30.10;21.15;;;;;;;2.81;97.95;99544.34;10286064;28;20090;-73
2022/12/21 14:02:04;;;;;;;31.08;21.05;;;;;;;2.74;98.03;99539.19;10292061;28;20049;-74
2022/12/21 14:07:24;;;;;;;26.13;21.60;;;;;;;2.77;98.46;99538.31;10285487;28;20038;-74
2022/12/21 14:12:32;;;;;;;28.17;21.48;;;;;;;2.74;99.25;99535.75;10443324;28;20064;-72
2022/12/21 14:17:43;;;;;;;23.98;20.80;;;;;;;2.66;99.89;99527.19;10463729;28;20041;-73
2022/12/21 14:22:46;;;;;;;24.00;19.88;;;;;;;2.68;99.67;99528.00;10461263;28;20515;-73
2022/12/21 14:28:37;;;;;;;23.63;20.13;;;;;;;2.61;99.27;99527.22;10442272;28;20071;-73
2022/12/21 14:33:46;;;;;;;27.05;19.63;;;;;;;2.69;100.00;99527.13;10293508;28;20055;-72
2022/12/21 14:39:12;;;;;;;21.58;18.60;;;;;;;2.69;99.13;99527.13;10377745;22;20057;-70
2022/12/21 14:44:35;;;;;;;24.88;19.85;;;;;;;2.71;99.30;99518.47;10380648;28;20447;-71
2022/12/21 14:49:44;;;;;;;27.90;21.17;;;;;;;2.55;100.00;99516.88;10258289;28;20059;-71
2022/12/21 14:55:04;;;;;;;24.35;20.27;;;;;;;2.53;100.00;99513.44;10255117;29;20063;-70
2022/12/21 15:00:12;;;;;;;26.25;19.90;;;;;;;2.31;100.00;99530.88;10240889;28;20043;-70
2022/12/21 15:05:35;;;;;;;26.30;20.20;;;;;;;2.22;100.00;99539.56;10248611;29;20525;-72
2022/12/21 15:10:43;;;;;;;27.80;21.88;;;;;;;2.27;100.00;99536.97;10249506;28;20524;-70
2022/12/21 15:16:13;;;;;;;25.20;21.35;;;;;;;2.58;100.00;99548.00;10250455;29;20473;-70
2022/12/21 15:21:33;;;;;;;29.38;21.77;;;;;;;2.11;100.00;99546.53;10247467;28;20055;-70
2022/12/21 15:26:57;;;;;;;34.40;21.85;;;;;;;2.46;100.00;99548.06;10321490;28;20419;-70
2022/12/21 15:32:15;;;;;;;36.95;23.52;;;;;;;2.25;100.00;99543.88;10364913;28;20061;-70
2022/12/21 15:37:22;;;;;;;29.60;22.35;;;;;;;2.30;100.00;99544.69;10360374;28;20077;-70
2022/12/21 15:43:02;;;;;;;55.93;30.13;;;;;;;2.47;100.00;99545.44;10365334;28;20060;-70
2022/12/21 15:48:11;;;;;;;42.20;25.13;;;;;;;2.21;100.00;99556.00;10421375;28;20041;-70
2022/12/21 15:53:22;;;;;;;43.42;25.45;;;;;;;2.16;100.00;99549.09;10378268;28;20499;-70
2022/12/21 15:58:28;;;;;;;45.35;25.63;;;;;;;2.12;100.00;99552.59;10391398;28;20049;-69
2022/12/21 16:03:35;;;;;;;47.78;26.45;;;;;;;2.24;100.00;99548.19;10421097;28;20545;-68
2022/12/21 16:08:39;;;;;;;39.30;24.45;;;;;;;2.27;100.00;99537.81;10369944;28;20053;-69
2022/12/21 16:13:41;;;;;;;37.50;23.75;;;;;;;2.47;100.00;99542.84;10382099;28;20076;-70
2022/12/21 16:18:43;;;;;;;41.38;25.30;;;;;;;2.43;100.00;99530.78;10381718;28;20042;-70
2022/12/21 16:23:49;;;;;;;44.20;25.08;;;;;;;2.35;100.00;99537.78;10381774;28;20121;-70
2022/12/21 16:28:56;;;;;;;38.50;25.27;;;;;;;2.10;100.00;99537.06;10364670;28;20044;-70
2022/12/21 16:34:13;;;;;;;33.22;23.48;;;;;;;2.24;100.00;99548.19;10365402;28;20106;-71
2022/12/21 16:39:15;;;;;;;32.95;22.88;;;;;;;2.24;100.00;99547.34;10380986;28;20052;-71
2022/12/21 16:44:19;;;;;;;36.30;22.90;;;;;;;2.33;100.00;99549.88;10381683;28;20574;-69
2022/12/21 16:49:29;;;;;;;37.47;23.42;;;;;;;2.24;100.00;99542.16;10381296;28;20042;-70
2022/12/21 16:54:40;;;;;;;34.20;22.58;;;;;;;2.16;100.00;99539.59;10378977;28;20135;-70
2022/12/21 16:59:46;;;;;;;32.08;23.73;;;;;;;1.99;100.00;99531.94;10379622;28;20149;-69
2022/12/21 17:04:49;;;;;;;36.40;21.63;;;;;;;2.05;100.00;99544.00;10379208;28;20455;-70
2022/12/21 17:09:59;;;;;;;35.53;23.65;;;;;;;2.09;100.00;99545.69;10378732;28;20038;-70
2022/12/21 17:15:27;;;;;;;31.88;22.35;;;;;;;2.12;100.00;99550.00;10362753;28;20049;-70
2022/12/21 17:20:32;;;;;;;36.67;22.15;;;;;;;2.14;100.00;99550.88;10378914;28;20453;-70
2022/12/21 17:25:47;;;;;;;30.90;21.30;;;;;;;2.23;100.00;99543.88;10361076;28;20348;-70
2022/12/21 17:30:49;;;;;;;34.60;24.08;;;;;;;2.18;100.00;99556.03;10360901;28;20509;-70
2022/12/21 17:35:52;;;;;;;31.80;22.20;;;;;;;2.25;100.00;99543.88;10378167;28;20042;-70
2022/12/21 17:40:54;;;;;;;33.05;23.50;;;;;;;2.28;100.00;99543.84;10360311;28;20045;-70
2022/12/21 17:45:56;;;;;;;36.22;24.77;;;;;;;2.46;100.00;99533.34;10378370;28;20435;-71
2022/12/21 17:50:58;;;;;;;35.13;24.23;;;;;;;2.49;100.00;99541.13;10378492;28;20403;-70
2022/12/21 17:55:59;;;;;;;38.92;23.40;;;;;;;2.23;100.00;99543.88;10362210;28;20480;-68
2022/12/21 18:01:01;;;;;;;41.95;24.27;;;;;;;2.10;100.00;99538.78;10377276;28;20042;-69
2022/12/21 18:06:03;;;;;;;41.28;24.95;;;;;;;2.27;100.00;99530.03;10376997;28;20057;-69
2022/12/21 18:11:05;;;;;;;39.97;24.95;;;;;;;2.43;100.00;99532.50;10378101;28;20400;-69
2022/12/21 18:16:42;;;;;;;40.50;24.85;;;;;;;2.32;100.00;99522.22;10377429;28;20091;-69
2022/12/21 18:21:43;;;;;;;44.15;25.58;;;;;;;2.14;100.00;99528.38;10252132;28;20460;-69
2022/12/21 18:26:45;;;;;;;46.50;24.77;;;;;;;2.28;100.00;99529.16;10251580;29;20103;-68
2022/12/21 18:31:47;;;;;;;48.13;24.95;;;;;;;2.05;100.00;99531.03;10252325;28;20055;-68
2022/12/21 18:36:49;;;;;;;46.15;24.80;;;;;;;2.17;100.00;99536.16;10251263;29;20067;-69
2022/12/21 18:41:51;;;;;;;46.33;27.27;;;;;;;1.93;100.00;99541.47;10234938;29;20050;-69
2022/12/21 18:46:53;;;;;;;53.90;27.67;;;;;;;2.05;100.00;99527.59;10250519;29;20088;-68
2022/12/21 18:51:55;;;;;;;48.15;27.98;;;;;;;2.06;100.00;99527.56;10250413;28;20062;-69
2022/12/21 18:56:56;;;;;;;52.25;27.80;;;;;;;1.91;100.00;99533.69;10337801;28;20053;-69
2022/12/21 19:01:58;;;;;;;52.33;27.20;;;;;;;1.63;100.00;99525.16;10375324;28;20042;-69
2022/12/21 19:07:01;;;;;;;50.92;28.15;;;;;;;1.72;100.00;99521.69;10357749;28;20096;-69
2022/12/21 19:12:03;;;;;;;50.38;27.55;;;;;;;1.79;100.00;99512.16;10375720;28;20517;-69
2022/12/21 19:17:16;;;;;;;48.25;27.42;;;;;;;1.41;100.00;99519.19;10374732;28;20038;-69
2022/12/21 19:22:23;;;;;;;57.65;28.95;;;;;;;1.30;100.00;99520.97;10374386;28;20033;-68
2022/12/21 19:27:25;;;;;;;59.30;28.65;;;;;;;1.77;100.00;99517.31;10357981;28;20158;-69
2022/12/21 19:32:26;;;;;;;44.92;26.23;;;;;;;1.73;100.00;99510.47;10357284;28;20052;-69
2022/12/21 19:37:29;;;;;;;47.97;27.83;;;;;;;1.79;100.00;99505.25;10374580;28;20046;-70
2022/12/21 19:42:33;;;;;;;44.85;27.05;;;;;;;1.35;100.00;99508.88;10356233;28;20042;-69
2022/12/21 19:47:34;;;;;;;56.40;27.85;;;;;;;1.12;100.00;99508.94;10374540;28;20391;-69
2022/12/21 19:52:36;;;;;;;50.95;29.10;;;;;;;0.87;100.00;99508.09;10356584;28;20097;-69
2022/12/21 19:57:40;;;;;;;58.90;28.88;;;;;;;0.91;100.00;99512.41;10373448;28;20052;-69
2022/12/21 20:02:46;;;;;;;56.80;31.02;;;;;;;0.96;100.00;99502.91;10356321;28;20085;-69
2022/12/21 20:07:48;;;;;;;64.93;31.67;;;;;;;1.08;100.00;99512.38;10356061;28;20056;-69
2022/12/21 20:12:50;;;;;;;55.80;29.08;;;;;;;1.15;100.00;99508.03;10373497;28;20398;-69
2022/12/21 20:17:52;;;;;;;50.47;27.23;;;;;;;1.03;100.00;99505.50;10355577;28;20038;-70
2022/12/21 20:22:54;;;;;;;49.35;29.08;;;;;;;0.92;100.00;99503.78;10373127;28;20418;-68
2022/12/21 20:27:56;;;;;;;51.90;29.13;;;;;;;0.65;100.00;99503.81;10356922;28;20052;-70
2022/12/21 20:33:04;;;;;;;44.90;27.60;;;;;;;0.43;100.00;99490.88;10362341;28;20112;-69
2022/12/21 20:38:21;;;;;;;48.42;28.42;;;;;;;0.45;100.00;99493.47;10362325;28;20129;-68
2022/12/21 20:43:47;;;;;;;57.20;29.70;;;;;;;0.95;100.00;99489.97;10386417;23;20558;-70
2022/12/21 20:48:49;;;;;;;61.63;30.75;;;;;;;1.08;100.00;99475.28;10382311;28;20487;-68
2022/12/21 20:53:51;;;;;;;61.55;30.70;;;;;;;0.94;100.00;99470.16;10382747;28;20038;-69
2022/12/21 20:58:55;;;;;;;52.25;27.60;;;;;;;0.89;100.00;99479.66;10380997;28;20038;-69
2022/12/21 21:03:57;;;;;;;59.33;30.70;;;;;;;0.86;100.00;99477.06;10381313;28;20128;-69
2022/12/21 21:08:59;;;;;;;55.25;29.50;;;;;;;0.96;100.00;99479.63;10363000;28;20141;-69
2022/12/21 21:14:02;;;;;;;53.42;29.55;;;;;;;0.94;100.00;99473.59;10380627;28;20100;-70
2022/12/21 21:19:05;;;;;;;57.55;29.65;;;;;;;0.83;100.00;99470.16;10380008;28;20045;-70
2022/12/21 21:24:27;;;;;;;49.22;27.95;;;;;;;0.76;100.00;99460.69;10380348;28;20415;-74
2022/12/21 21:29:29;;;;;;;59.22;28.83;;;;;;;0.70;100.00;99460.69;10378075;28;20064;-73
2022/12/21 21:34:30;;;;;;;56.45;30.15;;;;;;;0.67;100.00;99452.94;10380160;28;20120;-73
2022/12/21 21:44:59;;;;;;;;;;;;;;;0.96;100.00;99464.09;10379995;28;20038;-72
2022/12/21 21:50:19;;;;;;;54.03;28.70;;;;;;;0.69;100.00;99465.00;10379019;28;19921;-72
2022/12/21 21:55:23;;;;;;;43.13;25.52;;;;;;;0.64;100.00;99466.72;10379859;28;20041;-73
2022/12/21 22:00:28;;;;;;;47.30;27.40;;;;;;;0.51;100.00;99462.44;10377709;28;20044;-74
2022/12/21 22:05:31;;;;;;;43.45;26.77;;;;;;;0.95;100.00;99458.91;10378441;28;20053;-74
2022/12/21 22:10:33;;;;;;;59.88;28.90;;;;;;;0.72;100.00;99466.72;10378220;28;20056;-73
2022/12/21 22:15:46;;;;;;;49.17;27.40;;;;;;;0.59;100.00;99470.19;10378532;28;20048;-73
2022/12/21 22:42:32;;;;;;;57.95;29.35;;;;;;;1.32;100.00;99448.44;10355737;28;20053;-73
2022/12/21 22:47:33;;;;;;;54.35;27.45;;;;;;;1.23;100.00;99455.38;10376096;28;20533;-73
2022/12/21 22:52:37;;;;;;;58.22;30.02;;;;;;;0.89;100.00;99456.38;10378370;28;20042;-73
2022/12/21 22:57:39;;;;;;;53.03;28.98;;;;;;;1.08;100.00;99447.69;10377183;28;20050;-73
2022/12/21 23:02:40;;;;;;;51.10;28.40;;;;;;;1.03;100.00;99444.25;10376397;28;20060;-72
2022/12/21 23:07:43;;;;;;;44.22;26.95;;;;;;;1.35;100.00;99438.09;10376856;28;20491;-72
2022/12/21 23:18:31;;;;;;;46.72;26.02;;;;;;;1.45;100.00;99425.09;10376487;28;20038;-73
2022/12/21 23:28:53;;;;;;;42.42;26.48;;;;;;;1.46;100.00;99413.88;10377306;28;20096;-72
2022/12/21 23:44:56;;;;;;;40.85;25.23;;;;;;;1.31;100.00;99395.81;10376758;28;20128;-73
